Time;durP1;ratioP1;P1;durP2;ratioP2;P2;SDS_P1;SDS_P2;PMS_P1;PMS_P2;Temp;Humidity;BMP_temperature;BMP_pressure;BME280_temperature;BME280_humidity;BME280_pressure;Samples;Min_cycle;Max_cycle;Signal;HPM_P1;HPM_P2
2023/08/18 00:00:29;;;;;;;43.60;39.70;;;19.50;99.90;;;;;;5048608;28;20139;-64
2023/08/18 00:02:55;;;;;;;43.58;39.88;;;19.20;99.90;;;;;;5049780;28;20147;-64
2023/08/18 00:05:21;;;;;;;43.05;39.35;;;19.20;99.90;;;;;;5050938;28;20064;-64
2023/08/18 00:07:46;;;;;;;43.40;39.63;;;19.60;99.90;;;;;;5050058;28;20071;-65
2023/08/18 00:10:12;;;;;;;43.53;39.83;;;19.30;99.90;;;;;;5050244;28;20111;-64
2023/08/18 00:12:38;;;;;;;41.95;38.35;;;19.50;99.90;;;;;;5056026;28;20051;-65
2023/08/18 00:15:04;;;;;;;42.30;38.63;;;19.50;99.90;;;;;;5048480;28;20384;-64
2023/08/18 00:17:30;;;;;;;44.05;40.22;;;19.50;99.90;;;;;;5049964;28;20439;-65
2023/08/18 00:19:55;;;;;;;43.80;40.03;;;19.20;99.90;;;;;;5049223;28;20047;-64
2023/08/18 00:22:21;;;;;;;43.10;39.40;;;19.30;99.90;;;;;;5049340;28;20033;-64
2023/08/18 00:24:46;;;;;;;44.67;40.88;;;19.20;99.90;;;;;;5049029;28;20037;-64
2023/08/18 00:27:12;;;;;;;43.00;39.28;;;19.40;99.90;;;;;;5049386;28;20044;-65
2023/08/18 00:29:38;;;;;;;43.45;39.65;;;19.10;99.90;;;;;;5041028;28;20064;-64
2023/08/18 00:32:04;;;;;;;42.17;38.67;;;19.30;99.90;;;;;;5049903;28;20035;-64
2023/08/18 00:34:30;;;;;;;43.55;39.65;;;19.40;99.90;;;;;;5049792;28;20052;-64
2023/08/18 00:36:56;;;;;;;43.08;39.25;;;19.20;99.90;;;;;;5049685;28;20040;-64
2023/08/18 00:39:22;;;;;;;42.47;38.88;;;19.30;99.90;;;;;;5048878;28;20037;-64
2023/08/18 00:41:47;;;;;;;42.65;39.05;;;19.20;99.90;;;;;;5056061;28;20036;-64
2023/08/18 00:44:13;;;;;;;42.78;39.15;;;19.20;99.90;;;;;;5049127;28;20052;-64
2023/08/18 00:46:38;;;;;;;42.35;38.63;;;19.40;99.90;;;;;;5047349;28;20411;-64
2023/08/18 00:49:07;;;;;;;42.90;39.30;;;19.10;99.90;;;;;;5048555;28;20360;-64
2023/08/18 00:51:34;;;;;;;42.60;39.00;;;19.40;99.90;;;;;;5048206;28;20525;-64
2023/08/18 00:54:00;;;;;;;43.17;39.38;;;19.40;99.90;;;;;;5047779;28;20041;-65
2023/08/18 00:56:26;;;;;;;43.28;39.53;;;19.10;99.90;;;;;;5053117;28;20403;-64
2023/08/18 00:58:52;;;;;;;43.58;39.78;;;19.40;99.90;;;;;;5050449;28;20049;-64
2023/08/18 01:01:17;;;;;;;42.95;39.25;;;19.10;99.90;;;;;;5049322;28;20062;-64
2023/08/18 01:03:44;;;;;;;43.58;39.78;;;19.20;99.90;;;;;;5064609;28;20123;-64
2023/08/18 01:06:10;;;;;;;42.13;38.50;;;19.10;99.90;;;;;;5051979;28;20199;-64
2023/08/18 01:08:36;;;;;;;44.00;40.13;;;19.00;99.90;;;;;;5051818;28;20037;-65
2023/08/18 01:11:20;;;;;;;43.20;39.55;;;19.30;99.90;;;;;;5050638;28;20044;-64
2023/08/18 01:13:48;;;;;;;43.42;39.58;;;19.10;99.90;;;;;;5053678;28;20041;-64
2023/08/18 01:16:28;;;;;;;43.83;39.88;;;19.10;99.90;;;;;;5047359;28;20052;-64
2023/08/18 01:18:54;;;;;;;43.67;39.72;;;19.00;99.90;;;;;;5049568;28;20414;-65
2023/08/18 01:21:23;;;;;;;43.03;39.42;;;19.00;99.90;;;;;;5048873;28;20041;-64
2023/08/18 01:23:49;;;;;;;43.88;39.72;;;19.10;99.90;;;;;;5050749;28;20457;-64
2023/08/18 01:26:14;;;;;;;43.30;39.50;;;19.00;99.90;;;;;;5052460;28;20040;-64
2023/08/18 01:28:41;;;;;;;42.95;39.08;;;19.20;99.90;;;;;;5053951;28;20487;-64
2023/08/18 01:31:12;;;;;;;43.05;39.40;;;19.00;99.90;;;;;;5053046;28;20047;-64
2023/08/18 01:33:46;;;;;;;43.47;39.60;;;19.30;99.90;;;;;;5053303;28;20069;-64
2023/08/18 01:36:16;;;;;;;42.35;38.78;;;19.20;99.90;;;;;;5051960;28;20380;-65
2023/08/18 01:38:44;;;;;;;42.30;38.63;;;19.00;99.90;;;;;;5052132;28;20048;-64
2023/08/18 01:41:12;;;;;;;44.17;40.28;;;19.00;99.90;;;;;;5052829;28;20041;-64
2023/08/18 01:43:38;;;;;;;43.20;39.50;;;18.90;99.90;;;;;;5051831;28;20053;-64
2023/08/18 01:46:03;;;;;;;42.92;39.30;;;19.20;99.90;;;;;;5052200;28;20145;-65
2023/08/18 01:48:29;;;;;;;42.88;39.28;;;19.20;99.90;;;;;;5051547;28;20439;-64
2023/08/18 01:50:55;;;;;;;42.33;38.72;;;19.00;99.90;;;;;;5057689;28;20056;-64
2023/08/18 01:53:20;;;;;;;42.47;38.85;;;19.20;99.90;;;;;;5051113;28;20083;-65
2023/08/18 01:55:46;;;;;;;42.90;39.00;;;19.20;99.90;;;;;;5051707;28;20052;-65
2023/08/18 01:58:11;;;;;;;43.33;39.60;;;19.10;99.90;;;;;;5051730;28;20033;-64
2023/08/18 02:00:37;;;;;;;42.70;39.10;;;19.20;99.90;;;;;;5052238;28;20053;-64
2023/08/18 02:03:03;;;;;;;42.17;38.55;;;19.10;99.90;;;;;;5052170;28;20076;-64
2023/08/18 02:05:29;;;;;;;42.05;38.30;;;19.20;99.90;;;;;;5054063;28;20057;-64
2023/08/18 02:07:54;;;;;;;42.50;38.70;;;19.30;99.90;;;;;;5052055;28;20091;-64
2023/08/18 02:10:20;;;;;;;42.80;38.95;;;19.00;99.90;;;;;;5051353;28;20068;-64
2023/08/18 02:12:46;;;;;;;42.70;39.03;;;19.10;99.90;;;;;;5052374;28;20067;-64
2023/08/18 02:15:11;;;;;;;42.20;38.50;;;19.20;99.90;;;;;;5055118;28;20045;-64
2023/08/18 02:17:37;;;;;;;42.90;39.10;;;18.90;99.90;;;;;;5052136;28;20045;-64
2023/08/18 02:20:03;;;;;;;42.30;38.50;;;19.30;99.90;;;;;;5051767;28;20045;-64
2023/08/18 02:22:29;;;;;;;42.35;38.58;;;19.20;99.90;;;;;;5051878;28;20045;-64
2023/08/18 02:24:55;;;;;;;43.35;39.72;;;19.00;99.90;;;;;;5051022;28;20040;-64
2023/08/18 02:27:21;;;;;;;41.65;38.05;;;19.20;99.90;;;;;;5051879;28;20033;-64
2023/08/18 02:29:47;;;;;;;42.65;38.95;;;18.90;99.90;;;;;;5051960;28;20466;-64
2023/08/18 02:32:12;;;;;;;42.63;39.03;;;19.10;99.90;;;;;;5048665;28;20032;-64
2023/08/18 02:34:38;;;;;;;42.95;39.35;;;19.10;99.90;;;;;;5050759;28;20102;-64
2023/08/18 02:37:03;;;;;;;43.65;39.20;;;19.00;99.90;;;;;;5056149;28;20071;-64
2023/08/18 02:39:29;;;;;;;43.15;39.45;;;18.90;99.90;;;;;;5051724;28;20033;-64
2023/08/18 02:41:55;;;;;;;43.80;39.75;;;19.00;99.90;;;;;;5051670;28;20388;-64
2023/08/18 02:44:25;;;;;;;42.92;39.33;;;18.60;99.90;;;;;;5050864;28;20593;-64
2023/08/18 02:46:51;;;;;;;42.40;38.90;;;18.90;99.90;;;;;;5050741;28;20052;-64
2023/08/18 02:49:16;;;;;;;43.78;40.00;;;18.80;99.90;;;;;;5051110;28;20033;-64
2023/08/18 02:51:42;;;;;;;43.33;39.63;;;18.80;99.90;;;;;;5050989;28;20032;-64
2023/08/18 02:54:07;;;;;;;43.13;39.53;;;18.90;99.90;;;;;;5051105;28;20033;-64
2023/08/18 02:56:33;;;;;;;43.58;39.97;;;18.70;99.90;;;;;;5050130;28;20091;-64
2023/08/18 02:58:58;;;;;;;43.90;40.30;;;18.30;99.90;;;;;;5050792;28;20107;-64
2023/08/18 03:01:24;;;;;;;44.65;40.65;;;18.30;99.90;;;;;;5053532;28;20040;-64
2023/08/18 03:03:49;;;;;;;44.58;40.55;;;18.60;99.90;;;;;;5052613;28;20156;-64
2023/08/18 03:06:15;;;;;;;44.42;40.83;;;18.50;99.90;;;;;;5046252;28;20059;-64
2023/08/18 03:08:41;;;;;;;44.88;41.17;;;18.60;99.90;;;;;;5056311;28;20414;-64
2023/08/18 03:11:07;;;;;;;45.08;41.28;;;19.00;99.90;;;;;;5049466;28;20037;-64
2023/08/18 03:13:33;;;;;;;45.05;41.17;;;18.60;99.90;;;;;;5051058;28;20143;-65
2023/08/18 03:15:59;;;;;;;43.28;39.50;;;18.30;99.90;;;;;;5050621;28;20167;-64
2023/08/18 03:18:25;;;;;;;45.25;41.33;;;18.50;99.90;;;;;;5050988;28;20483;-64
2023/08/18 03:21:03;;;;;;;44.40;40.60;;;18.10;99.90;;;;;;5050447;28;20044;-64
2023/08/18 03:23:29;;;;;;;44.53;40.78;;;18.10;99.90;;;;;;5051854;28;20033;-64
2023/08/18 03:26:05;;;;;;;45.60;41.72;;;18.00;99.90;;;;;;5049759;28;20037;-64
2023/08/18 03:28:34;;;;;;;45.13;41.33;;;18.00;99.90;;;;;;5050602;28;20047;-64
2023/08/18 03:31:01;;;;;;;46.33;42.33;;;18.00;99.90;;;;;;5043617;28;20048;-64
2023/08/18 03:33:27;;;;;;;47.08;43.03;;;18.30;99.90;;;;;;5050677;28;20033;-64
2023/08/18 03:35:54;;;;;;;46.58;42.67;;;18.00;99.90;;;;;;5047142;28;20453;-64
2023/08/18 03:38:20;;;;;;;46.40;42.53;;;18.10;99.90;;;;;;5050400;28;20198;-64
2023/08/18 03:40:46;;;;;;;46.92;42.58;;;17.90;99.90;;;;;;5050008;28;20041;-64
2023/08/18 03:43:11;;;;;;;45.70;41.53;;;18.10;99.90;;;;;;5050148;28;20040;-64
2023/08/18 03:45:37;;;;;;;45.50;41.80;;;18.20;99.90;;;;;;5049537;28;20075;-64
2023/08/18 03:48:04;;;;;;;45.95;42.03;;;17.90;99.90;;;;;;5049950;28;20083;-64
2023/08/18 03:50:29;;;;;;;46.67;42.67;;;17.90;99.90;;;;;;5048241;28;20037;-64
2023/08/18 03:52:55;;;;;;;45.15;41.47;;;18.20;99.90;;;;;;5050514;28;20040;-64
2023/08/18 03:55:21;;;;;;;45.70;41.38;;;17.80;99.90;;;;;;5049153;28;20083;-64
2023/08/18 03:57:46;;;;;;;46.17;42.28;;;18.30;99.90;;;;;;5048657;28;20044;-64
2023/08/18 04:00:12;;;;;;;46.08;41.97;;;17.90;99.90;;;;;;5047147;28;20092;-64
2023/08/18 04:02:38;;;;;;;46.80;42.83;;;17.90;99.90;;;;;;5049905;28;20075;-64
2023/08/18 04:05:04;;;;;;;45.42;41.53;;;18.40;99.90;;;;;;5048594;28;20037;-64
2023/08/18 04:07:32;;;;;;;43.97;40.25;;;18.50;99.90;;;;;;5049573;28;20072;-64
2023/08/18 04:09:58;;;;;;;45.67;41.88;;;18.40;99.90;;;;;;5047418;28;20044;-64
2023/08/18 04:12:23;;;;;;;45.95;42.05;;;18.60;99.90;;;;;;5042254;28;20033;-64
2023/08/18 04:14:49;;;;;;;46.22;41.85;;;18.60;99.90;;;;;;5050093;28;20056;-64
2023/08/18 04:17:14;;;;;;;45.13;41.33;;;18.60;99.90;;;;;;5049583;28;20110;-64
2023/08/18 04:19:40;;;;;;;46.53;42.33;;;18.70;99.90;;;;;;5049710;28;20540;-66
2023/08/18 04:22:05;;;;;;;45.28;41.22;;;18.30;99.90;;;;;;5049755;28;20471;-67
2023/08/18 04:24:31;;;;;;;46.30;42.30;;;18.40;99.90;;;;;;5061897;28;20051;-67
2023/08/18 04:27:00;;;;;;;44.65;40.42;;;18.50;99.90;;;;;;5053638;28;20129;-67
2023/08/18 04:29:28;;;;;;;44.88;40.90;;;18.40;99.90;;;;;;5064829;28;20075;-66
2023/08/18 04:31:54;;;;;;;45.47;41.38;;;18.40;99.90;;;;;;5048732;28;20051;-66
2023/08/18 04:34:20;;;;;;;44.90;41.00;;;18.60;99.90;;;;;;5049388;28;20433;-66
2023/08/18 04:36:46;;;;;;;46.83;42.67;;;18.50;99.90;;;;;;5056353;28;20568;-66
2023/08/18 04:39:11;;;;;;;44.40;40.08;;;18.50;99.90;;;;;;5049575;28;20407;-67
2023/08/18 04:41:37;;;;;;;43.40;39.60;;;18.60;99.90;;;;;;5057183;28;20067;-67
2023/08/18 04:44:03;;;;;;;43.20;39.22;;;18.70;99.90;;;;;;5049708;28;20048;-66
2023/08/18 04:46:30;;;;;;;43.20;39.30;;;18.70;99.90;;;;;;5049199;28;20097;-66
2023/08/18 04:48:55;;;;;;;44.70;40.67;;;18.50;99.90;;;;;;5049471;28;20059;-66
2023/08/18 04:51:21;;;;;;;44.30;40.13;;;19.10;99.90;;;;;;5050280;28;20037;-67
2023/08/18 04:53:46;;;;;;;44.70;39.95;;;19.10;99.90;;;;;;5049773;28;20040;-67
2023/08/18 04:56:12;;;;;;;46.42;42.30;;;18.90;99.90;;;;;;5049749;28;20071;-66
2023/08/18 04:58:37;;;;;;;46.28;42.08;;;19.10;99.90;;;;;;5049358;28;20060;-66
2023/08/18 05:01:04;;;;;;;47.63;43.17;;;18.90;99.90;;;;;;5053152;28;20055;-67
2023/08/18 05:03:30;;;;;;;47.10;42.58;;;18.80;99.90;;;;;;5053294;28;20395;-66
2023/08/18 05:06:08;;;;;;;46.78;42.58;;;18.70;99.90;;;;;;5057076;28;20037;-67
2023/08/18 05:08:35;;;;;;;48.22;43.83;;;18.90;99.90;;;;;;5053274;28;20037;-66
2023/08/18 05:11:05;;;;;;;46.70;42.55;;;18.70;99.90;;;;;;5053454;28;20498;-67
2023/08/18 05:13:32;;;;;;;46.13;41.92;;;18.80;99.90;;;;;;5059402;28;20487;-67
2023/08/18 05:16:00;;;;;;;46.72;42.42;;;19.10;99.90;;;;;;5053331;28;20072;-67
2023/08/18 05:18:26;;;;;;;47.75;43.42;;;19.30;99.90;;;;;;5052149;28;20036;-66
2023/08/18 05:20:51;;;;;;;48.45;43.88;;;19.10;99.90;;;;;;5068541;28;20430;-66
2023/08/18 05:23:17;;;;;;;46.88;42.65;;;19.00;99.90;;;;;;5053324;28;20135;-67
2023/08/18 05:25:48;;;;;;;49.22;44.70;;;19.20;99.90;;;;;;5052705;28;20041;-66
2023/08/18 05:28:14;;;;;;;46.40;42.03;;;18.70;99.90;;;;;;5053279;28;20510;-67
2023/08/18 05:30:47;;;;;;;48.10;43.50;;;19.10;99.90;;;;;;5050849;28;20034;-64
2023/08/18 05:33:13;;;;;;;48.38;43.85;;;19.30;99.90;;;;;;5053883;28;20037;-64
2023/08/18 05:35:38;;;;;;;48.85;44.10;;;18.90;99.90;;;;;;5052495;28;20091;-64
2023/08/18 05:38:10;;;;;;;47.88;43.22;;;19.40;99.90;;;;;;5052867;28;20037;-64
2023/08/18 05:40:46;;;;;;;49.13;44.33;;;18.90;99.90;;;;;;5052610;28;20068;-64
2023/08/18 05:43:13;;;;;;;;;;;19.10;99.90;;;;;;5052073;28;20036;-65
2023/08/18 05:45:39;;;;;;;48.85;44.05;;;19.40;99.90;;;;;;5052714;28;19983;-64
2023/08/18 05:48:05;;;;;;;50.45;45.28;;;19.10;99.90;;;;;;5052090;28;20021;-64
2023/08/18 05:50:32;;;;;;;49.03;44.00;;;19.00;99.90;;;;;;5050991;28;20044;-64
2023/08/18 05:53:01;;;;;;;48.80;44.05;;;18.90;99.90;;;;;;5053311;28;20036;-64
2023/08/18 05:55:27;;;;;;;49.33;44.22;;;19.20;99.90;;;;;;5058474;28;20051;-64
2023/08/18 05:57:53;;;;;;;47.55;42.75;;;19.20;99.90;;;;;;5052159;28;20041;-64
2023/08/18 06:00:19;;;;;;;47.85;43.25;;;19.20;99.90;;;;;;5051620;28;20132;-64
2023/08/18 06:02:45;;;;;;;47.63;43.33;;;19.60;99.90;;;;;;5053065;28;20577;-64
2023/08/18 06:05:11;;;;;;;48.75;43.92;;;19.50;99.90;;;;;;5051901;28;20049;-64
2023/08/18 06:07:39;;;;;;;48.33;43.63;;;19.40;99.90;;;;;;5049517;28;20086;-64
2023/08/18 06:10:09;;;;;;;48.30;43.80;;;19.30;99.90;;;;;;5051155;28;20037;-64
2023/08/18 06:12:35;;;;;;;48.78;44.28;;;19.70;99.90;;;;;;5049619;28;20062;-65
2023/08/18 06:15:01;;;;;;;47.53;43.13;;;19.70;99.90;;;;;;5037948;28;20037;-65
2023/08/18 06:17:26;;;;;;;46.08;41.88;;;19.60;99.90;;;;;;5042206;28;20044;-65
2023/08/18 06:19:53;;;;;;;47.15;42.70;;;19.50;99.90;;;;;;5046879;28;20350;-65
2023/08/18 06:22:18;;;;;;;46.30;41.53;;;19.80;99.90;;;;;;5048715;28;20044;-65
2023/08/18 06:24:44;;;;;;;45.03;40.60;;;19.60;99.90;;;;;;5048853;28;20044;-65
2023/08/18 06:27:09;;;;;;;45.63;41.20;;;19.50;99.90;;;;;;5043601;28;20037;-65
2023/08/18 06:29:37;;;;;;;47.05;42.17;;;20.30;99.90;;;;;;5049097;28;20442;-65
2023/08/18 06:32:03;;;;;;;44.78;40.25;;;19.70;99.90;;;;;;5048266;28;20136;-65
2023/08/18 06:34:28;;;;;;;45.03;40.58;;;19.80;99.90;;;;;;5045328;28;20115;-65
2023/08/18 06:36:54;;;;;;;45.60;41.17;;;19.60;99.90;;;;;;5040645;28;20048;-65
2023/08/18 06:39:19;;;;;;;46.05;41.63;;;20.00;99.90;;;;;;5049807;28;20037;-63
2023/08/18 06:41:45;;;;;;;46.03;41.78;;;20.10;99.90;;;;;;5047103;28;20041;-63
2023/08/18 06:44:11;;;;;;;44.95;40.88;;;19.70;99.90;;;;;;5047707;28;20037;-63
2023/08/18 06:46:37;;;;;;;45.42;41.17;;;20.10;99.90;;;;;;5049903;28;20052;-63
2023/08/18 06:49:02;;;;;;;46.70;42.42;;;19.90;99.90;;;;;;5048977;28;20037;-64
2023/08/18 06:51:28;;;;;;;44.50;40.67;;;20.00;99.90;;;;;;5058504;28;20048;-64
2023/08/18 06:53:54;;;;;;;45.42;41.03;;;20.20;99.90;;;;;;5051721;28;20509;-63
2023/08/18 06:56:19;;;;;;;47.50;43.22;;;20.20;99.90;;;;;;5046411;28;20542;-63
2023/08/18 06:58:45;;;;;;;45.15;41.03;;;20.10;99.90;;;;;;5052082;28;20433;-63
2023/08/18 07:01:11;;;;;;;46.75;42.38;;;20.30;99.90;;;;;;5046479;28;20052;-64
2023/08/18 07:03:37;;;;;;;47.72;43.30;;;20.10;99.90;;;;;;5046449;28;20029;-63
2023/08/18 07:06:02;;;;;;;45.83;41.53;;;19.90;99.90;;;;;;5049186;28;20521;-63
2023/08/18 07:08:28;;;;;;;46.10;41.75;;;20.30;99.90;;;;;;5043892;28;20046;-63
2023/08/18 07:10:54;;;;;;;47.88;43.00;;;19.90;99.90;;;;;;5042223;28;20052;-64
2023/08/18 07:13:22;;;;;;;47.33;43.20;;;20.00;99.90;;;;;;5044332;28;20066;-65
2023/08/18 07:15:48;;;;;;;45.38;41.10;;;20.00;99.90;;;;;;5042829;28;20494;-63
2023/08/18 07:18:14;;;;;;;45.15;40.95;;;20.00;99.90;;;;;;5049437;28;20559;-64
2023/08/18 07:20:46;;;;;;;46.42;41.92;;;20.10;99.90;;;;;;5047117;28;20041;-65
2023/08/18 07:23:12;;;;;;;45.78;41.67;;;20.30;99.90;;;;;;5043750;28;20398;-64
2023/08/18 07:25:41;;;;;;;45.25;41.15;;;20.40;99.90;;;;;;5043038;28;20045;-64
2023/08/18 07:28:07;;;;;;;45.83;41.72;;;20.20;99.90;;;;;;5046866;28;20029;-63
2023/08/18 07:30:32;;;;;;;43.20;39.10;;;20.30;99.90;;;;;;5048896;28;20392;-63
2023/08/18 07:32:58;;;;;;;45.35;41.25;;;20.50;99.90;;;;;;5050003;28;20029;-64
2023/08/18 07:35:24;;;;;;;45.33;40.85;;;20.40;99.90;;;;;;5045984;28;20072;-64
2023/08/18 07:37:50;;;;;;;43.75;39.65;;;20.50;99.90;;;;;;5041374;28;20041;-65
2023/08/18 07:40:16;;;;;;;43.60;39.55;;;20.60;99.90;;;;;;5045701;28;20041;-63
2023/08/18 07:42:44;;;;;;;45.35;41.35;;;20.40;99.90;;;;;;5047396;28;20044;-64
2023/08/18 07:45:09;;;;;;;45.22;41.28;;;20.40;99.90;;;;;;5049197;28;20045;-64
2023/08/18 07:47:37;;;;;;;43.53;39.72;;;20.70;99.90;;;;;;5048167;28;20048;-63
2023/08/18 07:50:04;;;;;;;44.58;40.65;;;20.40;99.90;;;;;;5047337;28;20041;-62
2023/08/18 07:52:29;;;;;;;45.20;41.00;;;20.30;99.90;;;;;;5047313;28;20044;-62
2023/08/18 07:54:55;;;;;;;40.17;36.55;;;20.60;99.90;;;;;;5046352;28;20036;-63
2023/08/18 07:57:20;;;;;;;41.70;38.00;;;20.60;99.90;;;;;;5045204;28;20055;-61
2023/08/18 07:59:46;;;;;;;43.63;39.80;;;20.80;99.90;;;;;;5045480;28;20063;-64
2023/08/18 08:02:11;;;;;;;41.17;37.15;;;20.60;99.90;;;;;;5045441;28;20057;-64
2023/08/18 08:04:37;;;;;;;42.15;38.33;;;20.50;99.90;;;;;;5049331;28;20033;-63
2023/08/18 08:07:04;;;;;;;41.78;37.97;;;20.80;99.90;;;;;;5049359;28;20538;-62
2023/08/18 08:09:30;;;;;;;43.65;39.33;;;20.60;99.90;;;;;;5046221;28;20530;-61
2023/08/18 08:11:56;;;;;;;41.20;37.38;;;20.70;99.90;;;;;;5044066;28;20044;-62
2023/08/18 08:14:22;;;;;;;40.25;36.78;;;21.10;99.90;;;;;;5045444;28;20048;-63
2023/08/18 08:16:47;;;;;;;38.90;35.30;;;20.90;99.90;;;;;;5048388;28;20041;-62
2023/08/18 08:19:13;;;;;;;39.10;35.50;;;20.80;99.90;;;;;;5047379;28;20037;-63
2023/08/18 08:21:40;;;;;;;39.70;36.17;;;21.20;99.90;;;;;;5047790;28;20135;-64
2023/08/18 08:24:06;;;;;;;38.97;35.47;;;20.80;99.90;;;;;;5048452;28;20035;-62
2023/08/18 08:26:32;;;;;;;39.42;35.85;;;21.10;99.90;;;;;;5048056;28;20076;-62
2023/08/18 08:28:58;;;;;;;40.33;36.78;;;21.00;99.90;;;;;;5047104;28;20068;-63
2023/08/18 08:31:23;;;;;;;39.95;36.35;;;21.20;99.90;;;;;;5048906;28;20029;-62
2023/08/18 08:33:49;;;;;;;40.38;36.47;;;20.90;99.90;;;;;;5044978;28;20041;-65
2023/08/18 08:36:14;;;;;;;41.88;38.03;;;21.20;99.90;;;;;;5045782;28;20063;-62
2023/08/18 08:38:41;;;;;;;39.03;35.65;;;21.20;99.90;;;;;;5041729;28;20075;-63
2023/08/18 08:41:07;;;;;;;38.13;34.72;;;21.20;99.90;;;;;;5045824;28;20159;-60
2023/08/18 08:43:33;;;;;;;39.00;35.40;;;21.10;99.90;;;;;;5046131;28;20097;-60
2023/08/18 08:45:58;;;;;;;38.40;35.05;;;21.20;99.90;;;;;;5048125;28;20049;-60
2023/08/18 08:48:34;;;;;;;38.65;35.15;;;21.40;99.90;;;;;;5048195;28;20053;-61
2023/08/18 08:51:04;;;;;;;37.95;34.08;;;21.30;99.90;;;;;;5035010;28;20108;-63
2023/08/18 08:53:37;;;;;;;34.25;31.25;;;21.20;99.90;;;;;;5047206;28;20430;-61
2023/08/18 08:56:03;;;;;;;36.67;33.38;;;21.30;99.90;;;;;;5051213;28;20475;-61
2023/08/18 08:58:31;;;;;;;37.13;33.88;;;21.40;99.90;;;;;;5043112;28;20041;-61
2023/08/18 09:01:01;;;;;;;35.13;32.03;;;21.70;99.90;;;;;;5046159;28;20095;-61
2023/08/18 09:03:28;;;;;;;39.88;32.67;;;21.40;99.90;;;;;;5045578;28;20033;-61
2023/08/18 09:05:54;;;;;;;36.17;32.88;;;21.40;99.90;;;;;;5042658;28;20052;-62
2023/08/18 09:08:19;;;;;;;33.00;30.20;;;21.40;99.90;;;;;;5046046;28;20047;-61
2023/08/18 09:10:45;;;;;;;34.67;31.58;;;21.80;99.90;;;;;;5047930;28;20488;-61
2023/08/18 09:13:12;;;;;;;34.33;31.40;;;21.50;99.90;;;;;;5045687;28;20045;-61
2023/08/18 09:15:44;;;;;;;36.40;33.10;;;21.80;99.90;;;;;;5049579;28;20171;-61
2023/08/18 09:18:11;;;;;;;34.40;31.30;;;21.70;99.90;;;;;;5044610;28;20049;-61
2023/08/18 09:20:37;;;;;;;34.83;31.77;;;21.90;99.90;;;;;;5050719;28;20505;-60
2023/08/18 09:23:03;;;;;;;36.22;32.92;;;21.80;99.90;;;;;;5047444;28;20045;-61
2023/08/18 09:25:32;;;;;;;34.05;31.02;;;21.60;99.90;;;;;;5046811;28;20077;-60
2023/08/18 09:27:58;;;;;;;36.00;32.75;;;21.80;99.90;;;;;;5047904;28;20045;-61
2023/08/18 09:30:24;;;;;;;36.88;33.33;;;21.50;99.90;;;;;;5049476;28;20033;-63
2023/08/18 09:32:50;;;;;;;36.50;33.30;;;21.60;99.90;;;;;;5049969;28;20061;-60
2023/08/18 09:35:19;;;;;;;37.92;34.28;;;21.60;99.90;;;;;;5048065;28;20036;-61
2023/08/18 09:37:53;;;;;;;37.05;33.65;;;21.80;99.90;;;;;;5047071;28;20495;-62
2023/08/18 09:40:19;;;;;;;36.03;32.83;;;21.70;99.90;;;;;;5048229;28;20139;-62
2023/08/18 09:42:45;;;;;;;36.30;32.72;;;21.90;99.90;;;;;;5048599;28;20487;-61
2023/08/18 09:45:11;;;;;;;35.67;32.47;;;22.00;99.90;;;;;;5050942;28;20075;-65
2023/08/18 09:47:39;;;;;;;35.45;32.35;;;22.00;99.90;;;;;;5051782;28;20144;-61
2023/08/18 09:50:09;;;;;;;35.15;32.10;;;21.80;99.90;;;;;;5052169;28;20403;-61
2023/08/18 09:52:37;;;;;;;36.17;32.85;;;21.70;99.90;;;;;;5047580;28;20491;-61
2023/08/18 09:55:11;;;;;;;34.67;31.52;;;21.70;99.90;;;;;;5049443;28;20136;-60
2023/08/18 09:58:06;;;;;;;36.95;33.55;;;22.00;99.90;;;;;;5051444;28;20033;-61
2023/08/18 10:00:33;;;;;;;35.75;32.30;;;22.10;99.90;;;;;;5049031;28;20094;-61
2023/08/18 10:03:03;;;;;;;36.00;32.60;;;21.90;99.90;;;;;;5049219;28;20048;-60
2023/08/18 10:05:28;;;;;;;35.45;32.22;;;22.00;99.90;;;;;;5050974;28;20049;-62
2023/08/18 10:07:54;;;;;;;36.30;33.08;;;22.00;28.80;;;;;;5052921;28;20029;-60
2023/08/18 10:10:21;;;;;;;37.95;33.10;;;22.10;1.00;;;;;;5048964;28;20439;-61
2023/08/18 10:12:47;;;;;;;35.22;32.00;;;22.30;1.00;;;;;;5048756;28;20053;-61
2023/08/18 10:15:14;;;;;;;37.78;34.20;;;22.00;99.90;;;;;;5047609;28;20040;-63
2023/08/18 10:17:39;;;;;;;36.85;33.55;;;21.90;99.90;;;;;;5065559;28;20047;-64
2023/08/18 10:20:12;;;;;;;39.45;35.65;;;22.00;99.90;;;;;;5052554;28;20049;-63
2023/08/18 10:22:38;;;;;;;37.95;34.50;;;22.10;99.90;;;;;;5050705;28;20406;-66
2023/08/18 10:25:05;;;;;;;37.45;33.88;;;22.50;99.90;;;;;;5046836;28;20033;-65
2023/08/18 10:27:32;;;;;;;39.60;36.00;;;22.10;99.90;;;;;;5050513;28;20108;-65
2023/08/18 10:30:07;;;;;;;38.20;34.50;;;22.10;99.90;;;;;;5050942;28;20040;-64
2023/08/18 10:32:33;;;;;;;39.60;35.83;;;22.20;99.90;;;;;;5049671;28;20123;-64
2023/08/18 10:35:26;;;;;;;40.67;36.95;;;22.50;99.90;;;;;;5050555;28;20037;-65
2023/08/18 10:38:07;;;;;;;38.40;34.88;;;22.30;1.00;;;;;;5050995;28;20380;-64
2023/08/18 10:40:38;;;;;;;41.30;37.45;;;22.50;1.00;;;;;;5052537;28;20490;-64
2023/08/18 10:43:07;;;;;;;39.58;35.88;;;22.50;1.00;;;;;;5050327;28;20544;-65
2023/08/18 10:45:33;;;;;;;40.67;36.55;;;22.70;1.00;;;;;;5049484;28;20048;-65
2023/08/18 10:48:03;;;;;;;39.85;36.15;;;22.40;1.00;;;;;;5050842;28;20040;-63
2023/08/18 10:50:30;;;;;;;37.55;34.25;;;22.80;1.00;;;;;;5043773;28;20124;-64
2023/08/18 10:52:56;;;;;;;38.75;35.22;;;22.70;99.90;;;;;;5048271;28;20127;-66
2023/08/18 10:55:25;;;;;;;38.80;35.20;;;22.40;99.90;;;;;;5049405;28;20044;-64
2023/08/18 10:57:52;;;;;;;41.10;37.30;;;22.50;99.90;;;;;;5046330;28;20709;-65
2023/08/18 11:00:18;;;;;;;42.35;38.35;;;22.70;99.90;;;;;;5047796;28;20055;-65
2023/08/18 11:02:45;;;;;;;37.85;34.38;;;22.50;99.90;;;;;;5044804;28;20090;-64
2023/08/18 11:05:11;;;;;;;40.63;36.95;;;22.60;99.90;;;;;;5050329;28;20033;-63
2023/08/18 11:07:36;;;;;;;39.85;36.13;;;22.80;99.90;;;;;;5048861;28;20035;-63
2023/08/18 11:10:29;;;;;;;38.20;34.90;;;23.10;99.90;;;;;;5050795;28;20067;-65
2023/08/18 11:12:57;;;;;;;39.38;35.75;;;23.00;99.90;;;;;;5045287;28;20132;-64
2023/08/18 11:15:23;;;;;;;38.05;34.55;;;22.90;99.90;;;;;;5047224;28;20124;-64
2023/08/18 11:17:49;;;;;;;36.08;32.75;;;23.10;99.90;;;;;;5049189;28;20063;-64
2023/08/18 11:20:16;;;;;;;37.13;33.72;;;23.10;51.60;;;;;;5050095;28;20029;-67
2023/08/18 11:22:47;;;;;;;36.88;33.47;;;22.90;1.00;;;;;;5047634;28;20040;-67
2023/08/18 11:25:14;;;;;;;36.03;32.70;;;23.10;99.90;;;;;;5043611;28;20041;-67
2023/08/18 11:27:41;;;;;;;37.30;33.80;;;22.90;99.90;;;;;;5047909;28;20032;-67
2023/08/18 11:30:09;;;;;;;37.63;34.13;;;22.90;99.90;;;;;;5049416;28;20037;-67
2023/08/18 11:32:34;;;;;;;35.42;31.80;;;23.00;99.90;;;;;;5048550;28;20550;-67
2023/08/18 11:35:01;;;;;;;36.65;33.25;;;23.00;1.00;;;;;;5048838;28;20116;-67
2023/08/18 11:37:28;;;;;;;35.72;32.35;;;23.40;1.00;;;;;;5047397;28;20041;-67
2023/08/18 11:39:54;;;;;;;35.33;31.95;;;23.30;1.00;;;;;;5049366;28;20403;-67
2023/08/18 11:42:20;;;;;;;35.38;32.05;;;23.60;99.90;;;;;;5046922;28;20465;-67
2023/08/18 11:44:49;;;;;;;37.63;34.22;;;23.60;80.10;;;;;;5048069;28;20398;-67
2023/08/18 11:47:17;;;;;;;35.63;32.42;;;23.60;1.00;;;;;;5047770;28;20052;-67
2023/08/18 11:49:44;;;;;;;38.33;34.72;;;23.90;99.90;;;;;;5048558;28;20033;-67
2023/08/18 11:52:09;;;;;;;37.78;34.17;;;23.80;18.50;;;;;;5049479;28;20830;-67
2023/08/18 11:54:36;;;;;;;35.53;32.30;;;23.80;1.00;;;;;;5063995;28;20049;-67
2023/08/18 11:57:06;;;;;;;36.72;33.40;;;24.30;99.90;;;;;;5048397;28;20640;-69
2023/08/18 11:59:32;;;;;;;37.15;33.70;;;23.80;99.90;;;;;;5049956;28;20068;-67
2023/08/18 12:02:00;;;;;;;37.35;33.75;;;24.00;99.90;;;;;;5050431;28;20057;-69
2023/08/18 12:04:33;;;;;;;40.60;36.60;;;24.10;1.00;;;;;;5045113;28;20052;-68
2023/08/18 12:06:58;;;;;;;36.90;33.47;;;23.90;99.90;;;;;;5042232;28;20121;-67
2023/08/18 12:09:25;;;;;;;38.53;34.92;;;24.20;99.90;;;;;;5048791;28;20148;-67
2023/08/18 12:11:51;;;;;;;36.63;33.13;;;24.00;99.90;;;;;;5048939;28;20041;-67
2023/08/18 12:14:17;;;;;;;36.67;33.30;;;24.10;99.90;;;;;;5048572;28;20048;-67
2023/08/18 12:16:44;;;;;;;38.30;34.70;;;24.50;99.70;;;;;;5048785;28;20662;-67
2023/08/18 12:19:11;;;;;;;37.45;33.85;;;24.10;1.00;;;;;;5048906;28;20032;-67
2023/08/18 12:21:37;;;;;;;39.88;35.95;;;24.00;1.00;;;;;;5045218;28;20071;-66
2023/08/18 12:24:06;;;;;;;37.63;34.13;;;24.20;99.90;;;;;;5048976;28;20111;-67
2023/08/18 12:26:33;;;;;;;36.90;33.40;;;24.20;99.90;;;;;;5046671;28;20067;-67